Latest Weather Observations for Cape Willoughby

IDS60801

Issued at 6:31 am CDT Sunday 3 March 2024 (issued every 10 minutes, with the page automatically refreshed every 10 minutes)

About weather observations | Map of weather stations | Latest weather observations for SA | Other Formats
Station Details ID: 022803 Name: CAPE WILLOUGHBY Lat: -35.84 Lon: 138.13 Height: 55.0 m
Data from the previous 72 hours. | See also: Recent months at Cape Willoughby
Date/Time
CDT
Temp
°C
App
Temp
°C
Dew
Point
°C
Rel
Hum
%
Delta-T
°C
Wind Press
QNH
hPa
Press
MSL
hPa
Rain since
9am
mm
Dir  Spd
km/h
Gust
km/h
Spd
kts
Gust
kts
03/06:30am 15.8 11.8 10.3 70 2.9 SE 22 32 12 17 1021.3 1021.1 0.0
03/06:00am 15.8 11.8 10.3 70 2.9 SSE 22 32 12 17 1021.1 1020.9 0.0
03/05:30am 15.8 11.4 10.3 70 2.9 SSE 24 33 13 18 1021.0 1020.8 0.0
03/05:00am 15.7 10.7 9.6 67 3.2 SSE 26 33 14 18 1020.6 1020.4 0.0
03/04:30am 15.8 11.4 10.3 70 2.9 SSE 24 30 13 16 1020.4 1020.2 0.0
03/04:00am 15.8 11.9 10.8 72 2.7 SSE 22 28 12 15 1020.3 1020.1 0.0
03/03:30am 15.9 11.6 10.7 71 2.8 SSE 24 33 13 18 1020.3 1020.1 0.0
03/03:00am 15.9 11.6 10.9 72 2.7 SSE 24 32 13 17 1020.2 1020.0 0.0
03/02:30am 15.9 11.6 10.9 72 2.7 SSE 24 32 13 17 1020.3 1020.1 0.0
03/02:00am 16.0 11.5 11.4 74 2.5 SSE 26 32 14 17 1020.5 1020.3 0.0
03/01:30am 16.0 12.2 11.2 73 2.6 SSE 22 32 12 17 1020.6 1020.4 0.0
03/01:00am 16.0 11.4 11.0 72 2.7 SSE 26 32 14 17 1020.7 1020.5 0.0
03/12:30am 16.1 12.3 11.1 72 2.7 SSE 22 30 12 16 1021.0 1020.8 0.0
03/12:00am 16.3 12.5 11.2 72 2.7 SSE 22 30 12 16 1021.1 1020.9 0.0
 
Date/Time
CDT
Temp
°C
App
Temp
°C
Dew
Point
°C
Rel
Hum
%
Delta-T
°C
Wind Press
QNH
hPa
Press
MSL
hPa
Rain since
9am
mm
Dir  Spd
km/h
Gust
km/h
Spd
kts
Gust
kts
02/11:30pm 16.4 12.9 10.9 70 2.9 SSE 20 28 11 15 1021.2 1021.0 0.0
02/11:00pm 16.5 12.8 11.6 73 2.7 SSE 22 32 12 17 1021.2 1021.0 0.0
02/10:30pm 16.6 13.0 11.7 73 2.7 SE 22 28 12 15 1021.3 1021.1 0.0
02/10:00pm 16.7 13.6 12.3 75 2.4 SE 20 26 11 14 1021.4 1021.2 0.0
02/09:30pm 16.8 13.8 11.9 73 2.7 SE 19 24 10 13 1021.2 1021.0 0.0
02/09:00pm 16.8 13.9 10.9 68 3.2 SSE 17 22 9 12 1020.9 1020.7 0.0
02/08:30pm 16.8 13.9 10.9 68 3.2 SSE 17 22 9 12 1020.5 1020.3 0.0
02/08:00pm 16.9 14.1 11.4 70 3.0 SSE 17 20 9 11 1020.4 1020.2 0.0
02/07:30pm 17.0 13.7 11.7 71 2.9 SSE 20 26 11 14 1020.3 1020.1 0.0
02/07:00pm 17.1 13.7 11.4 69 3.1 SSE 20 24 11 13 1020.1 1019.9 0.0
02/06:30pm 17.4 14.2 11.9 70 3.0 SSE 20 26 11 14 1020.1 1019.9 0.0
02/06:00pm 17.5 13.9 12.0 70 3.0 SSE 22 26 12 14 1020.0 1019.8 0.0
02/05:30pm 17.7 14.3 12.6 72 2.8 SSE 22 28 12 15 1020.1 1019.9 0.0
02/05:00pm 18.2 14.4 12.4 69 3.2 SSE 24 33 13 18 1020.1 1019.9 0.0
02/04:30pm 18.6 15.0 13.0 70 3.2 SSE 24 30 13 16 1020.3 1020.1 0.0
02/04:00pm 18.4 14.7 12.6 69 3.2 SE 24 30 13 16 1020.4 1020.2 0.0
02/03:30pm 18.3 15.1 13.2 72 2.9 SSE 22 28 12 15 1020.5 1020.3 0.0
02/03:00pm 18.3 14.7 13.2 72 2.9 SSE 24 32 13 17 1020.7 1020.5 0.0
02/02:30pm 18.9 16.3 13.1 69 3.3 SE 19 24 10 13 1021.0 1020.8 0.0
02/02:00pm 18.9 16.2 13.5 71 3.1 SSE 20 28 11 15 1020.9 1020.7 0.0
02/01:30pm 19.2 16.5 13.4 69 3.3 SE 20 26 11 14 1020.9 1020.7 0.0
02/01:00pm 19.2 17.0 13.4 69 3.3 SE 17 24 9 13 1020.9 1020.7 0.0
02/12:30pm 20.6 18.4 14.5 68 3.6 SE 19 22 10 12 1020.9 1020.7 0.0
02/12:00pm 20.2 18.0 14.3 69 3.4 SE 19 24 10 13 1021.0 1020.8 0.0
02/11:30am 19.3 16.0 13.9 71 3.1 SE 24 28 13 15 1021.0 1020.8 0.0
02/11:00am 18.9 14.5 14.0 73 2.8 SE 30 35 16 19 1021.1 1020.9 0.0
02/10:30am 18.3 14.2 13.8 75 2.6 SE 28 35 15 19 1021.3 1021.1 0.0
02/10:00am 17.7 13.9 13.6 77 2.3 SE 26 33 14 18 1021.4 1021.2 0.0
02/09:30am 17.4 13.6 13.5 78 2.2 SSE 26 33 14 18 1021.1 1020.9 0.0
02/09:00am 17.4 14.3 13.5 78 2.2 SSE 22 30 12 16 1020.8 1020.6 0.0
02/08:30am 16.7 13.1 13.2 80 2.0 SSE 24 37 13 20 1020.4 1020.2 0.0
02/08:00am 17.3 14.4 14.0 81 1.9 SE 22 28 12 15 1020.0 1019.8 0.0
02/07:30am 17.0 14.5 14.1 83 1.7 SE 20 24 11 13 1019.4 1019.3 0.0
02/07:00am 17.1 14.6 14.0 82 1.8 SE 20 28 11 15 1018.8 1018.7 0.0
02/06:30am 17.0 14.6 14.3 84 1.5 SSE 20 26 11 14 1018.4 1018.3 0.0
02/06:00am 16.9 14.3 13.8 82 1.8 SSE 20 28 11 15 1018.1 1018.0 0.0
02/05:30am 16.9 14.6 14.2 84 1.5 SSE 19 22 10 12 1017.8 1017.7 0.0
02/05:00am 17.0 14.6 14.3 84 1.5 SSE 20 28 11 15 1017.7 1017.6 0.0
02/04:30am 16.9 15.4 14.2 84 1.5 SSE 15 19 8 10 1017.9 1017.8 0.0
02/04:00am 17.0 15.5 14.3 84 1.5 S 15 20 8 11 1018.2 1018.1 0.0
02/03:30am 16.9 14.4 14.2 84 1.5 S 20 24 11 13 1018.3 1018.2 0.0
02/03:00am 16.9 14.1 14.2 84 1.5 S 22 28 12 15 1018.2 1018.1 0.0
02/02:30am 17.2 13.4 14.7 85 1.4 S 28 32 15 17 1018.2 1018.1 0.0
02/02:00am 17.4 14.0 14.7 84 1.6 S 26 33 14 18 1018.6 1018.5 0.0
02/01:30am 17.8 16.6 14.1 79 2.1 SSW 13 17 7 9 1019.0 1018.9 0.0
02/01:00am 17.6 16.4 14.1 80 2.0 SSW 13 19 7 10 1019.1 1019.0 0.0
02/12:30am 17.6 15.7 14.3 81 1.9 SSW 17 22 9 12 1018.9 1018.8 0.0
02/12:00am 17.6 16.4 14.1 80 2.0 SSW 13 19 7 10 1018.9 1018.8 0.0
 
Date/Time
CDT
Temp
°C
App
Temp
°C
Dew
Point
°C
Rel
Hum
%
Delta-T
°C
Wind Press
QNH
hPa
Press
MSL
hPa
Rain since
9am
mm
Dir  Spd
km/h
Gust
km/h
Spd
kts
Gust
kts
01/11:30pm 17.6 16.0 13.9 79 2.1 SSW 15 19 8 10 1019.2 1019.1 0.0
01/11:00pm 17.8 16.1 13.7 77 2.3 S 15 20 8 11 1019.2 1019.1 0.0
01/10:30pm 17.9 16.3 13.8 77 2.3 S 15 19 8 10 1019.1 1019.0 0.0
01/10:00pm 17.9 16.3 14.0 78 2.2 S 15 19 8 10 1018.8 1018.7 0.0
01/09:30pm 17.8 15.4 13.7 77 2.3 S 19 24 10 13 1017.9 1017.8 0.0
01/09:00pm 17.8 15.4 13.9 78 2.2 S 19 24 10 13 1017.6 1017.5 0.0
01/08:30pm 17.8 15.1 13.5 76 2.4 S 20 26 11 14 1017.2 1017.1 0.0
01/08:00pm 17.8 15.7 13.7 77 2.3 S 17 20 9 11 1017.2 1017.1 0.0
01/07:30pm 17.8 15.3 13.5 76 2.4 S 19 20 10 11 1017.2 1017.1 0.0
01/07:00pm 17.9 15.4 13.6 76 2.4 S 19 24 10 13 1016.7 1016.6 0.0
01/06:30pm 17.9 15.4 13.4 75 2.5 S 19 22 10 12 1016.6 1016.5 0.0
01/06:00pm 18.0 15.4 13.3 74 2.7 S 19 22 10 12 1016.6 1016.5 0.0
01/05:30pm 18.0 15.2 13.3 74 2.7 S 20 26 11 14 1016.3 1016.2 0.0
01/05:00pm 18.1 14.5 13.2 73 2.8 S 24 30 13 16 1016.1 1016.0 0.0
01/04:30pm 18.2 15.3 12.9 71 3.0 S 20 26 11 14 1016.2 1016.1 0.0
01/04:00pm 18.7 15.4 12.9 69 3.3 S 22 28 12 15 1016.1 1016.0 0.0
01/03:30pm 18.9 15.6 12.9 68 3.4 S 22 26 12 14 1016.2 1016.1 0.0
01/03:00pm 18.7 15.9 13.1 70 3.2 S 20 26 11 14 1016.3 1016.2 0.0
01/02:30pm 18.9 16.4 13.5 71 3.1 S 19 24 10 13 1016.3 1016.2 0.0
01/02:00pm 19.0 16.1 14.1 73 2.8 S 22 28 12 15 1016.2 1016.1 0.0
01/01:30pm 19.4 17.2 14.4 73 2.9 S 19 22 10 12 1016.2 1016.1 0.0
01/01:00pm 19.8 18.1 14.8 73 2.9 S 17 19 9 10 1016.4 1016.3 0.0
01/12:30pm 19.9 18.5 14.5 71 3.1 S 15 17 8 9 1016.4 1016.3 0.0
01/12:00pm 19.4 17.4 14.9 75 2.6 S 19 20 10 11 1016.7 1016.6 0.0
01/11:30am 18.9 18.2 14.4 75 2.6 SSE 11 15 6 8 1017.0 1016.9 0.0
01/11:00am 19.7 19.5 14.7 73 2.9 ESE 9 13 5 7 1017.0 1016.9 0.0
01/10:30am 19.1 19.7 15.4 79 2.2 SE 6 9 3 5 1017.0 1016.9 0.0
01/10:00am 19.0 19.6 15.3 79 2.2 E 6 7 3 4 1017.2 1017.1 0.0
01/09:30am 17.9 17.4 14.8 82 1.8 E 11 13 6 7 1016.7 1016.6 0.0
01/09:00am 17.6 17.9 14.5 82 1.8 E 6 9 3 5 1016.9 1016.8 -
01/08:30am 17.7 17.5 14.8 83 1.7 SE 9 13 5 7 1016.7 1016.6 -
01/08:00am 17.3 16.7 14.6 84 1.6 SE 11 13 6 7 1016.4 1016.3 -
01/07:30am 17.1 16.9 14.7 86 1.4 SE 9 13 5 7 1016.2 1016.1 -
01/07:00am 16.8 16.5 14.4 86 1.4 SSE 9 13 5 7 1015.8 1015.7 -
01/06:30am 16.9 16.3 14.5 86 1.4 SSE 11 13 6 7 1015.6 1015.5 -
01/06:00am 16.9 16.6 14.5 86 1.4 SSE 9 13 5 7 1015.4 1015.3 -
01/05:30am 16.9 16.7 14.7 87 1.3 SSE 9 13 5 7 1015.2 1015.1 -
01/05:00am 16.8 16.6 14.8 88 1.2 SE 9 11 5 6 1015.2 1015.1 -
01/04:30am 16.5 16.8 14.9 90 0.9 ESE 7 9 4 5 1015.3 1015.2 -
01/04:00am 16.6 16.9 15.1 91 0.9 SE 7 9 4 5 1015.5 1015.4 -
01/03:30am 16.6 16.9 15.1 91 0.9 ENE 7 7 4 4 1015.7 1015.6 -
01/03:00am 16.6 17.1 15.0 90 0.9 ESE 6 7 3 4 1015.8 1015.7 0.0
01/02:30am 16.7 17.0 15.1 90 0.9 ESE 7 9 4 5 1016.1 1016.0 -
01/02:00am 16.9 17.2 15.1 89 1.0 NNE 7 9 4 5 1016.0 1015.9 -
01/01:30am 16.8 17.3 15.0 89 1.0 NNE 6 7 3 4 1016.5 1016.4 -
01/01:00am 16.8 17.3 15.0 89 1.0 ESE 6 7 3 4 1016.6 1016.5 -
01/12:30am 17.1 17.6 15.1 88 1.2 ESE 6 7 3 4 1016.9 1016.8 -
01/12:00am 17.1 17.4 14.9 87 1.3 NNE 7 9 4 5 1017.3 1017.2 -
 
Date/Time
CDT
Temp
°C
App
Temp
°C
Dew
Point
°C
Rel
Hum
%
Delta-T
°C
Wind Press
QNH
hPa
Press
MSL
hPa
Rain since
9am
mm
Dir  Spd
km/h
Gust
km/h
Spd
kts
Gust
kts
29/11:30pm 17.1 17.4 14.9 87 1.3 E 7 9 4 5 1017.4 1017.3 -
29/11:00pm 17.3 17.6 14.9 86 1.4 E 7 9 4 5 1017.3 1017.2 -
29/10:30pm 17.8 17.5 15.4 86 1.4 SSE 11 13 6 7 1017.1 1017.0 -
29/10:00pm 17.9 16.3 15.0 83 1.7 S 17 20 9 11 1017.1 1017.0 -
29/09:30pm 17.9 16.4 15.3 85 1.5 S 17 20 9 11 1017.0 1016.9 -
29/09:00pm 17.8 16.0 15.4 86 1.4 S 19 22 10 12 1016.6 1016.5 -
29/08:30pm 17.9 15.1 15.3 85 1.5 S 24 28 13 15 1016.3 1016.2 -
29/08:00pm 18.2 16.6 15.1 82 1.8 S 17 20 9 11 1016.3 1016.2 -
29/07:30pm 18.4 17.9 14.9 80 2.0 S 11 15 6 8 1016.2 1016.1 -
29/07:00pm 18.9 18.9 15.2 79 2.2 SE 9 13 5 7 1016.2 1016.1 -
29/06:30pm 18.9 18.8 15.0 78 2.3 SSE 9 11 5 6 1016.2 1016.1 -
29/06:00pm 19.1 19.0 15.0 77 2.4 SSE 9 11 5 6 1016.0 1015.9 -
29/05:30pm 19.3 19.2 15.0 76 2.5 SE 9 11 5 6 1016.1 1016.0 -
29/05:00pm 19.3 18.4 14.8 75 2.6 S 13 19 7 10 1016.4 1016.3 -
29/04:30pm 19.5 17.7 14.5 73 2.9 S 17 22 9 12 1016.4 1016.3 -
29/02:00pm 19.6 17.4 14.4 72 3.0 S 19 24 10 13 1017.2 1017.1 0.0
29/01:30pm 20.0 17.9 14.6 71 3.2 S 19 22 10 12 1017.5 1017.4 0.0
29/01:00pm 19.5 18.1 14.5 73 2.9 SSE 15 19 8 10 1017.4 1017.3 0.0
29/12:30pm 19.7 17.3 14.3 71 3.1 S 20 22 11 12 1017.7 1017.6 0.0
29/12:00pm 19.6 18.2 14.4 72 3.0 S 15 19 8 10 1017.5 1017.4 0.0
29/11:30am 19.6 18.5 14.4 72 3.0 S 13 17 7 9 1017.2 1017.1 0.0
29/11:00am 19.4 17.9 14.2 72 3.0 S 15 19 8 10 1017.3 1017.2 0.0
29/10:30am 19.3 18.2 14.3 73 2.9 SSE 13 17 7 9 1017.2 1017.1 0.0
29/10:00am 18.7 18.4 14.4 76 2.5 SSE 9 17 5 9 1016.9 1016.8 0.0
29/09:30am 18.6 18.2 14.1 75 2.6 SSW 9 15 5 8 1016.9 1016.8 0.0
29/09:00am 18.1 16.5 14.0 77 2.3 SW 15 20 8 11 1016.3 1016.2 0.0
29/08:30am 18.0 18.4 15.3 84 1.6 SW 7 11 4 6 1016.3 1016.2 0.0
29/08:00am 17.4 16.9 14.9 85 1.5 WSW 11 15 6 8 1016.3 1016.2 0.0
29/07:30am 17.0 17.1 14.5 85 1.4 WSW 7 11 4 6 1015.6 1015.5 0.0
29/07:00am 16.7 16.6 13.8 83 1.6 WSW 7 11 4 6 1015.3 1015.2 0.0

Other formats

Comma delimited format used in spreadsheet applications
http://www.bom.gov.au/fwo/IDS60801/IDS60801.94822.axf

JavaScript Object Notation format (JSON) in row-major order
http://www.bom.gov.au/fwo/IDS60801/IDS60801.94822.json

Data quality

Most of these data are generated automatically and are frequently updated. Quality checks on data are not normally performed. It is possible for incorrect values to appear. Refer to information at About Latest Weather Observations and please check the disclaimer before using these data.